createdAt,value
2022-08-25T00:00:54.270Z,100128.78
2022-08-25T00:05:55.956Z,100126.91
2022-08-25T00:11:03.204Z,100122.28
2022-08-25T00:16:05.622Z,100124.16
2022-08-25T00:21:07.848Z,100122.69
2022-08-25T00:26:10.507Z,100124.38
2022-08-25T00:31:20.242Z,100123.75
2022-08-25T00:36:22.215Z,100125.38
2022-08-25T00:41:25.275Z,100123.31
2022-08-25T00:46:32.934Z,100116.81
2022-08-25T00:51:43.106Z,100113.28
2022-08-25T00:56:46.554Z,100110.50
2022-08-25T01:01:49.487Z,100115.75
2022-08-25T01:06:51.698Z,100103.81
2022-08-25T01:11:53.384Z,100106.53
2022-08-25T01:16:55.495Z,100101.50
2022-08-25T01:21:57.257Z,100100.44
2022-08-25T01:26:58.966Z,100105.22
2022-08-25T01:32:04.650Z,100101.66
2022-08-25T01:37:06.520Z,100101.00
2022-08-25T01:42:11.593Z,100104.63
2022-08-25T01:47:14.155Z,100101.28
2022-08-25T01:52:33.417Z,100102.50
2022-08-25T01:57:35.064Z,100102.28
2022-08-25T02:02:36.775Z,100102.50
2022-08-25T02:07:44.203Z,100104.63
2022-08-25T02:12:45.867Z,100100.47
2022-08-25T02:17:47.545Z,100102.16
2022-08-25T02:22:56.615Z,100097.34
2022-08-25T02:27:59.823Z,100098.00
2022-08-25T02:33:01.762Z,100096.72
2022-08-25T02:38:04.920Z,100088.38
2022-08-25T02:43:06.662Z,100096.31
2022-08-25T02:48:08.366Z,100096.91
2022-08-25T02:53:10.042Z,100096.91
2022-08-25T02:58:11.759Z,100098.41
2022-08-25T03:03:13.674Z,100092.13
2022-08-25T03:08:15.898Z,100080.41
2022-08-25T03:13:18.184Z,100077.50
2022-08-25T03:18:20.286Z,100074.97
2022-08-25T03:23:21.967Z,100076.44
2022-08-25T03:28:25.026Z,100071.41
2022-08-25T03:33:32.236Z,100073.09
2022-08-25T03:38:34.307Z,100070.38
2022-08-25T03:43:35.959Z,100071.81
2022-08-25T03:48:37.693Z,100070.53
2022-08-25T03:53:39.453Z,100072.06
2022-08-25T03:58:41.177Z,100071.81
2022-08-25T04:03:43.781Z,100070.94
2022-08-25T04:08:45.822Z,100078.47
2022-08-25T04:13:48.479Z,100063.44
2022-08-25T04:18:52.559Z,100060.50
2022-08-25T04:23:56.417Z,100068.41
2022-08-25T04:29:00.116Z,100072.63
2022-08-25T04:34:17.693Z,100061.75
2022-08-25T04:39:27.650Z,100060.06
2022-08-25T04:44:30.897Z,100055.94
2022-08-25T04:49:32.724Z,100058.22
2022-08-25T04:54:37.197Z,100064.31
2022-08-25T04:59:39.481Z,100062.03
2022-08-25T05:04:41.598Z,100073.13
2022-08-25T05:09:43.320Z,100078.78
2022-08-25T05:14:45.097Z,100087.31
2022-08-25T05:19:46.744Z,100084.19
2022-08-25T05:24:48.377Z,100078.34
2022-08-25T05:29:50.060Z,100088.16
2022-08-25T05:34:51.706Z,100093.34
2022-08-25T05:39:53.477Z,100089.41
2022-08-25T05:44:55.574Z,100083.03
2022-08-25T05:49:57.371Z,100085.81
2022-08-25T05:55:00.710Z,100073.47
2022-08-25T06:00:04.653Z,100075.50
2022-08-25T06:05:23.059Z,100076.00
2022-08-25T06:10:25.276Z,100065.06
2022-08-25T06:15:27.219Z,100070.38
2022-08-25T06:20:31.182Z,100076.06
2022-08-25T06:25:33.921Z,100069.75
2022-08-25T06:30:35.794Z,100073.16
2022-08-25T06:35:42.040Z,100070.19
2022-08-25T06:40:47.730Z,100062.88
2022-08-25T06:45:49.365Z,100062.81
2022-08-25T06:50:51.090Z,100064.84
2022-08-25T06:55:57.873Z,100061.13
2022-08-25T07:01:19.685Z,100055.66
2022-08-25T07:06:21.523Z,100046.66
2022-08-25T07:11:23.548Z,100060.59
2022-08-25T07:16:25.739Z,100046.09
2022-08-25T07:21:35.703Z,100044.34
2022-08-25T07:26:39.897Z,100036.09
2022-08-25T07:31:42.005Z,100045.97
2022-08-25T07:36:44.253Z,100042.28
2022-08-25T07:41:46.333Z,100054.22
2022-08-25T07:46:48.693Z,100044.47
2022-08-25T07:52:04.159Z,100046.72
2022-08-25T07:57:09.041Z,100031.31
2022-08-25T08:02:18.399Z,100044.03
2022-08-25T08:07:25.837Z,100028.50
2022-08-25T08:12:45.897Z,100040.63
2022-08-25T08:17:47.659Z,100032.88
2022-08-25T08:22:49.840Z,100027.41
2022-08-25T08:27:51.585Z,100026.25
2022-08-25T08:33:19.642Z,100014.91
2022-08-25T08:38:22.105Z,100009.84
2022-08-25T08:43:33.212Z,100003.41
2022-08-25T08:48:53.966Z,100010.53
2022-08-25T08:54:00.796Z,99999.63
2022-08-25T08:59:13.094Z,99988.28
2022-08-25T09:04:28.118Z,99989.53
2022-08-25T09:09:35.611Z,99979.31
2022-08-25T09:14:38.573Z,99988.59
2022-08-25T09:19:58.487Z,99980.88
2022-08-25T09:25:29.394Z,99976.00
2022-08-25T09:30:56.937Z,99962.91
2022-08-25T09:35:59.241Z,99957.00
2022-08-25T09:41:07.849Z,99951.00
2022-08-25T09:46:18.074Z,99949.03
2022-08-25T09:51:38.209Z,99940.66
2022-08-25T09:57:02.180Z,99937.75
2022-08-25T10:02:26.058Z,99913.75
2022-08-25T10:07:35.446Z,99910.88
2022-08-25T10:12:44.049Z,99896.47
2022-08-25T10:17:45.916Z,99893.47
2022-08-25T10:22:50.745Z,99878.06
2022-08-25T10:28:07.581Z,99873.41
2022-08-25T10:33:23.188Z,99871.25
2022-08-25T10:38:40.098Z,99858.13
2022-08-25T10:43:59.376Z,99854.63
2022-08-25T10:49:20.139Z,99857.09
2022-08-25T10:54:30.458Z,99838.66
2022-08-25T10:59:56.080Z,99830.69
2022-08-25T11:05:18.397Z,99823.63
2022-08-25T11:10:39.433Z,99820.13
2022-08-25T11:16:13.744Z,99825.28
2022-08-25T11:21:22.123Z,99812.69
2022-08-25T11:26:36.662Z,99808.34
2022-08-25T11:31:43.565Z,99807.22
2022-08-25T11:36:59.902Z,99801.53
2022-08-25T11:42:12.491Z,99805.16
2022-08-25T11:47:21.454Z,99802.16
2022-08-25T11:52:38.234Z,99795.34
2022-08-25T11:57:44.751Z,99793.28
2022-08-25T12:02:50.649Z,99784.66
2022-08-25T12:08:12.201Z,99776.50
2022-08-25T12:13:41.265Z,99769.88
2022-08-25T12:18:46.213Z,99761.88
2022-08-25T12:24:06.018Z,99758.19
2022-08-25T12:29:11.840Z,99750.56
2022-08-25T12:34:26.687Z,99751.97
2022-08-25T12:39:34.093Z,99752.25
2022-08-25T12:44:41.923Z,99735.03
2022-08-25T12:49:44.122Z,99742.44
2022-08-25T12:54:58.202Z,99732.28
2022-08-25T13:00:16.763Z,99728.66
2022-08-25T13:05:26.355Z,99714.63
2022-08-25T13:10:34.177Z,99711.56
2022-08-25T13:15:47.030Z,99704.75
2022-08-25T13:20:55.918Z,99708.06
2022-08-25T13:25:58.561Z,99698.63
2022-08-25T13:31:14.138Z,99696.63
2022-08-25T13:36:35.905Z,99691.91
2022-08-25T13:41:43.661Z,99677.56
2022-08-25T13:46:47.211Z,99685.16
2022-08-25T13:51:54.442Z,99664.69
2022-08-25T13:57:06.829Z,99667.91
2022-08-25T14:02:15.077Z,99665.03
2022-08-25T14:07:21.301Z,99671.28
2022-08-25T14:12:45.512Z,99669.66
2022-08-25T14:18:00.663Z,99658.22
2022-08-25T14:23:18.713Z,99656.22
2022-08-25T14:28:24.006Z,99657.72
2022-08-25T14:33:32.772Z,99652.63
2022-08-25T14:38:44.151Z,99642.72
2022-08-25T14:43:46.097Z,99629.47
2022-08-25T14:48:52.217Z,99632.22
2022-08-25T14:53:57.440Z,99626.84
2022-08-25T14:59:00.052Z,99615.97
2022-08-25T15:04:06.424Z,99614.75
2022-08-25T15:09:11.692Z,99618.47
2022-08-25T15:14:18.368Z,99622.41
2022-08-25T15:19:23.536Z,99618.22
2022-08-25T15:24:26.755Z,99614.44
2022-08-25T15:29:30.959Z,99598.38
2022-08-25T15:34:32.842Z,99610.97
2022-08-25T15:39:36.674Z,99613.56
2022-08-25T15:44:39.529Z,99611.47
2022-08-25T15:49:41.182Z,99611.88
2022-08-25T15:54:42.858Z,99599.78
2022-08-25T15:59:46.834Z,99592.59
2022-08-25T16:04:51.558Z,99587.59
2022-08-25T16:09:57.207Z,99579.25
2022-08-25T16:14:58.972Z,99578.53
2022-08-25T16:20:01.147Z,99576.34
2022-08-25T16:25:03.078Z,99583.59
2022-08-25T16:30:11.777Z,99578.47
2022-08-25T16:35:15.515Z,99577.50
2022-08-25T16:40:19.016Z,99576.00
2022-08-25T16:45:22.105Z,99580.72
2022-08-25T16:50:23.856Z,99589.28
2022-08-25T16:55:27.082Z,99583.78
2022-08-25T17:00:31.934Z,99583.97
2022-08-25T17:05:40.636Z,99584.84
2022-08-25T17:10:43.496Z,99588.81
2022-08-25T17:15:48.923Z,99591.63
2022-08-25T17:21:08.281Z,99579.53
2022-08-25T17:26:14.686Z,99596.13
2022-08-25T17:31:17.221Z,99601.97
2022-08-25T17:36:19.270Z,99610.81
2022-08-25T17:41:21.132Z,99619.63
2022-08-25T17:46:22.947Z,99621.03
2022-08-25T17:51:26.145Z,99627.63
2022-08-25T17:56:33.478Z,99625.97
2022-08-25T18:01:40.569Z,99633.09
2022-08-25T18:06:42.784Z,99637.75
2022-08-25T18:11:45.027Z,99628.34
2022-08-25T18:16:46.750Z,99631.59
2022-08-25T18:21:48.505Z,99640.66
2022-08-25T18:26:50.191Z,99642.78
2022-08-25T18:31:53.656Z,99652.38
2022-08-25T18:37:17.700Z,99656.16
2022-08-25T18:42:20.161Z,99658.63
2022-08-25T18:47:22.948Z,99649.22
2022-08-25T18:52:24.596Z,99656.56
2022-08-25T18:57:26.688Z,99659.22
2022-08-25T19:02:30.871Z,99659.22
2022-08-25T19:07:32.668Z,99658.19
2022-08-25T19:12:34.541Z,99661.91
2022-08-25T19:17:38.767Z,99662.47
2022-08-25T19:22:42.073Z,99661.25
2022-08-25T19:32:47.810Z,99669.28
2022-08-25T19:37:51.905Z,99667.03
2022-08-25T19:42:53.965Z,99672.22
2022-08-25T19:47:56.433Z,99670.25
2022-08-25T19:52:59.940Z,99675.16
2022-08-25T19:58:03.484Z,99675.09
2022-08-25T20:03:06.241Z,99674.16
2022-08-25T20:08:08.394Z,99671.66
2022-08-25T20:13:10.292Z,99674.03
2022-08-25T20:18:12.314Z,99673.41
2022-08-25T20:23:40.124Z,99673.22
2022-08-25T20:28:42.321Z,99669.44
2022-08-25T20:33:44.102Z,99677.09
2022-08-25T20:38:47.566Z,99674.25
2022-08-25T20:43:50.119Z,99670.38
2022-08-25T20:48:51.841Z,99672.88
2022-08-25T20:53:53.816Z,99673.44
2022-08-25T20:58:55.548Z,99670.69
2022-08-25T21:03:57.376Z,99668.75
2022-08-25T21:08:59.146Z,99669.28
2022-08-25T21:14:02.291Z,99675.69
2022-08-25T21:19:08.829Z,99663.06
2022-08-25T21:24:13.141Z,99672.91
2022-08-25T21:29:15.175Z,99674.03
2022-08-25T21:34:18.941Z,99671.94
2022-08-25T21:39:20.613Z,99654.16
2022-08-25T21:44:22.304Z,99665.09
2022-08-25T21:49:25.086Z,99662.38
2022-08-25T21:54:26.997Z,99656.44
2022-08-25T21:59:33.653Z,99657.19
2022-08-25T22:04:36.020Z,99647.81
2022-08-25T22:09:39.135Z,99650.28
2022-08-25T22:14:41.028Z,99661.88
2022-08-25T22:19:42.876Z,99657.34
2022-08-25T22:24:44.518Z,99644.59
2022-08-25T22:29:46.634Z,99645.47
2022-08-25T22:34:49.109Z,99640.38
2022-08-25T22:39:50.849Z,99640.84
2022-08-25T22:44:53.964Z,99634.69
2022-08-25T22:49:55.913Z,99626.47
2022-08-25T22:54:57.684Z,99625.28
2022-08-25T22:59:59.438Z,99631.25
2022-08-25T23:05:01.747Z,99613.59
2022-08-25T23:10:06.021Z,99618.31
2022-08-25T23:15:12.396Z,99617.25
2022-08-25T23:20:32.645Z,99607.75
2022-08-25T23:25:39.597Z,99597.06
2022-08-25T23:30:42.722Z,99591.84
2022-08-25T23:35:46.497Z,99600.16
2022-08-25T23:40:48.148Z,99600.88
2022-08-25T23:45:50.121Z,99592.44
2022-08-25T23:50:53.956Z,99589.25
2022-08-25T23:55:57.435Z,99592.44
